createdAt,value
2022-12-22T00:01:33.995Z,19.40
2022-12-22T00:06:57.463Z,18.60
2022-12-22T00:12:21.065Z,18.95
2022-12-22T00:17:48.230Z,19.70
2022-12-22T00:23:12.858Z,18.95
2022-12-22T00:28:36.643Z,20.60
2022-12-22T00:34:01.790Z,21.15
2022-12-22T00:39:31.528Z,19.38
2022-12-22T00:44:55.798Z,20.80
2022-12-22T00:50:21.507Z,18.77
2022-12-22T00:55:50.607Z,20.58
2022-12-22T01:01:14.342Z,20.55
2022-12-22T01:06:39.300Z,20.90
2022-12-22T01:12:02.792Z,20.25
2022-12-22T01:17:28.582Z,20.02
2022-12-22T01:22:53.722Z,19.52
2022-12-22T01:28:17.873Z,18.42
2022-12-22T01:33:41.510Z,20.98
2022-12-22T01:39:06.740Z,20.63
2022-12-22T01:44:35.645Z,17.48
2022-12-22T01:50:03.025Z,18.60
2022-12-22T01:55:34.285Z,18.90
2022-12-22T02:00:58.246Z,16.70
2022-12-22T02:06:41.461Z,17.17
2022-12-22T02:12:21.483Z,17.20
2022-12-22T02:17:52.158Z,17.55
2022-12-22T02:23:29.179Z,17.13
2022-12-22T02:28:55.494Z,17.33
2022-12-22T02:34:19.063Z,17.42
2022-12-22T02:39:54.977Z,17.38
2022-12-22T02:45:31.903Z,14.73
2022-12-22T02:51:03.906Z,16.85
2022-12-22T02:56:30.111Z,15.50
2022-12-22T03:01:55.258Z,14.95
2022-12-22T03:07:18.672Z,14.57
2022-12-22T03:12:42.333Z,14.23
2022-12-22T03:18:07.409Z,12.95
2022-12-22T03:23:31.199Z,13.10
2022-12-22T03:28:38.804Z,12.73
2022-12-22T03:33:46.512Z,11.65
2022-12-22T03:38:52.777Z,12.93
2022-12-22T03:44:16.728Z,13.93
2022-12-22T03:49:26.604Z,12.35
2022-12-22T03:54:34.031Z,13.10
2022-12-22T03:59:40.535Z,13.63
2022-12-22T04:04:48.455Z,14.85
2022-12-22T04:10:11.405Z,13.98
2022-12-22T04:15:19.242Z,15.15
2022-12-22T04:20:30.632Z,12.85
2022-12-22T04:25:37.056Z,14.93
2022-12-22T04:30:43.620Z,15.05
2022-12-22T04:35:51.645Z,14.20
2022-12-22T04:40:58.099Z,13.85
2022-12-22T04:46:05.470Z,13.50
2022-12-22T04:51:14.085Z,13.40
2022-12-22T04:56:20.475Z,14.50
2022-12-22T05:01:27.225Z,14.55
2022-12-22T05:06:35.216Z,13.40
2022-12-22T05:11:41.894Z,13.65
2022-12-22T05:16:48.428Z,13.45
2022-12-22T05:21:56.338Z,14.70
2022-12-22T05:27:03.139Z,14.52
2022-12-22T05:32:09.781Z,13.40
2022-12-22T05:37:17.847Z,12.85
2022-12-22T05:42:41.470Z,12.53
2022-12-22T05:47:50.838Z,11.80
2022-12-22T05:52:58.813Z,14.60
2022-12-22T05:58:05.187Z,12.15
2022-12-22T06:03:11.954Z,12.30
2022-12-22T06:08:19.989Z,13.95
2022-12-22T06:13:27.954Z,13.73
2022-12-22T06:18:34.487Z,13.50
2022-12-22T06:23:42.403Z,11.95
2022-12-22T06:28:49.643Z,13.13
2022-12-22T06:33:56.445Z,13.85
2022-12-22T06:39:04.608Z,12.23
2022-12-22T06:44:11.217Z,9.87
2022-12-22T06:49:18.079Z,13.70
2022-12-22T06:54:26.665Z,12.50
2022-12-22T06:59:33.535Z,13.30
2022-12-22T07:04:42.631Z,12.07
2022-12-22T07:14:57.104Z,13.15
2022-12-22T07:20:04.228Z,12.43
2022-12-22T07:25:12.723Z,11.07
2022-12-22T07:30:22.539Z,11.98
2022-12-22T07:35:29.258Z,13.05
2022-12-22T07:40:41.743Z,13.38
2022-12-22T07:45:49.269Z,13.80
2022-12-22T07:50:57.107Z,13.05
2022-12-22T07:56:09.778Z,13.85
2022-12-22T08:01:18.438Z,13.48
2022-12-22T08:06:25.625Z,15.13
2022-12-22T08:11:33.804Z,17.77
2022-12-22T08:16:40.548Z,16.67
2022-12-22T08:21:52.474Z,13.35
2022-12-22T08:27:05.176Z,13.25
2022-12-22T08:32:18.063Z,12.82
2022-12-22T08:37:27.904Z,13.30
2022-12-22T08:42:36.626Z,14.38
2022-12-22T08:47:43.171Z,12.10
2022-12-22T08:52:49.894Z,12.05
2022-12-22T08:57:59.515Z,12.43
2022-12-22T09:03:06.425Z,12.23
2022-12-22T09:08:14.983Z,11.15
2022-12-22T09:13:23.363Z,12.03
2022-12-22T09:18:29.943Z,12.52
2022-12-22T09:23:36.452Z,12.20
2022-12-22T09:28:49.863Z,11.38
2022-12-22T09:33:57.611Z,14.73
2022-12-22T09:39:08.688Z,14.13
2022-12-22T09:44:27.237Z,13.18
2022-12-22T09:49:34.124Z,12.95
2022-12-22T09:54:40.652Z,10.93
2022-12-22T09:59:49.327Z,11.70
2022-12-22T10:05:17.097Z,11.80
2022-12-22T10:10:28.641Z,13.82
2022-12-22T10:15:43.328Z,13.07
2022-12-22T10:21:10.055Z,11.55
2022-12-22T10:26:30.161Z,13.07
2022-12-22T10:31:56.538Z,12.07
2022-12-22T10:37:05.090Z,12.18
2022-12-22T10:42:15.413Z,13.15
2022-12-22T10:47:26.270Z,12.87
2022-12-22T10:52:34.036Z,12.13
2022-12-22T10:57:40.660Z,13.35
2022-12-22T11:02:55.555Z,14.02
2022-12-22T11:08:16.931Z,13.32
2022-12-22T11:13:51.975Z,12.48
2022-12-22T11:19:17.990Z,12.73
2022-12-22T11:24:40.560Z,12.38
2022-12-22T11:30:12.118Z,13.55
2022-12-22T11:35:36.095Z,12.88
2022-12-22T11:40:47.360Z,12.40
2022-12-22T11:46:20.229Z,13.07
2022-12-22T11:51:51.064Z,12.75
2022-12-22T11:57:10.605Z,12.25
2022-12-22T12:03:01.953Z,12.90
2022-12-22T12:08:22.549Z,14.13
2022-12-22T12:13:40.066Z,12.63
2022-12-22T12:19:26.501Z,12.60
2022-12-22T12:24:58.957Z,12.02
2022-12-22T12:30:37.668Z,14.32
2022-12-22T12:35:53.855Z,13.85
2022-12-22T12:41:12.491Z,12.45
2022-12-22T12:47:00.233Z,14.23
2022-12-22T12:52:07.565Z,13.02
2022-12-22T12:57:29.986Z,13.50
2022-12-22T13:02:40.845Z,12.15
2022-12-22T13:08:25.254Z,13.23
2022-12-22T13:13:52.572Z,12.98
2022-12-22T13:19:00.862Z,13.13
2022-12-22T13:24:28.721Z,12.13
2022-12-22T13:29:49.988Z,12.63
2022-12-22T13:40:44.397Z,13.45
2022-12-22T13:45:56.925Z,13.43
2022-12-22T13:51:05.550Z,12.90
2022-12-22T13:56:18.210Z,12.50
2022-12-22T14:01:27.301Z,12.85
2022-12-22T14:06:37.269Z,14.82
2022-12-22T14:11:51.261Z,13.80
2022-12-22T14:17:02.040Z,13.13
2022-12-22T14:22:13.295Z,13.27
2022-12-22T14:27:32.107Z,13.68
2022-12-22T14:32:45.742Z,14.63
2022-12-22T14:38:01.032Z,14.13
2022-12-22T14:43:24.137Z,13.77
2022-12-22T14:48:35.959Z,15.30
2022-12-22T14:53:47.552Z,14.13
2022-12-22T14:59:08.973Z,13.02
2022-12-22T15:04:22.728Z,14.70
2022-12-22T15:14:58.304Z,12.73
2022-12-22T15:20:09.019Z,12.30
2022-12-22T15:25:18.337Z,13.55
2022-12-22T15:30:32.090Z,26.10
2022-12-22T15:35:40.374Z,26.73
2022-12-22T15:40:47.384Z,33.50
2022-12-22T15:45:57.990Z,21.63
2022-12-22T15:51:09.498Z,22.23
2022-12-22T15:56:22.559Z,25.23
2022-12-22T16:01:29.383Z,23.38
2022-12-22T16:06:37.853Z,23.63
2022-12-22T16:11:45.549Z,21.52
2022-12-22T16:16:52.256Z,22.27
2022-12-22T16:22:00.118Z,24.70
2022-12-22T16:27:07.085Z,20.90
2022-12-22T16:32:19.969Z,23.35
2022-12-22T16:37:28.187Z,21.25
2022-12-22T16:48:02.726Z,20.27
2022-12-22T16:53:14.891Z,18.25
2022-12-22T16:58:21.552Z,15.73
2022-12-22T17:03:30.524Z,16.17
2022-12-22T17:13:46.640Z,14.48
2022-12-22T17:18:53.371Z,14.75
2022-12-22T17:24:04.507Z,13.02
2022-12-22T17:29:17.277Z,14.80
2022-12-22T17:34:23.666Z,14.18
2022-12-22T17:39:33.006Z,13.98
2022-12-22T17:44:39.839Z,13.52
2022-12-22T17:49:46.936Z,13.57
2022-12-22T17:54:55.948Z,12.57
2022-12-22T18:00:06.448Z,14.10
2022-12-22T18:05:20.020Z,13.75
2022-12-22T18:10:34.041Z,13.50
2022-12-22T18:15:40.417Z,14.73
2022-12-22T18:21:07.477Z,13.77
2022-12-22T18:26:25.640Z,14.20
2022-12-22T18:31:32.786Z,13.70
2022-12-22T18:36:42.798Z,12.75
2022-12-22T18:41:54.577Z,12.02
2022-12-22T18:47:03.212Z,11.88
2022-12-22T18:52:19.520Z,13.35
2022-12-22T18:57:28.448Z,11.70
2022-12-22T19:02:35.941Z,12.18
2022-12-22T19:07:43.642Z,11.60
2022-12-22T19:12:56.672Z,10.85
2022-12-22T19:18:04.072Z,11.05
2022-12-22T19:23:16.550Z,11.93
2022-12-22T19:28:34.069Z,11.38
2022-12-22T19:33:44.546Z,11.00
2022-12-22T19:39:00.518Z,10.40
2022-12-22T19:44:23.350Z,9.77
2022-12-22T19:49:31.522Z,10.20
2022-12-22T19:54:39.729Z,10.53
2022-12-22T19:59:51.158Z,9.50
2022-12-22T20:04:59.177Z,10.05
2022-12-22T20:10:11.613Z,11.15
2022-12-22T20:15:25.446Z,10.20
2022-12-22T20:20:36.865Z,10.32
2022-12-22T20:25:51.967Z,11.25
2022-12-22T20:31:04.058Z,11.50
2022-12-22T20:36:22.502Z,11.13
2022-12-22T20:41:33.503Z,11.45
2022-12-22T20:46:45.408Z,10.43
2022-12-22T20:51:59.595Z,11.65
2022-12-22T20:57:08.505Z,11.00
2022-12-22T21:02:25.824Z,12.73
2022-12-22T21:07:35.192Z,11.60
2022-12-22T21:12:44.004Z,12.85
2022-12-22T21:17:58.499Z,11.97
2022-12-22T21:23:09.805Z,10.75
2022-12-22T21:28:28.470Z,11.20
2022-12-22T21:33:39.596Z,11.02
2022-12-22T21:38:52.299Z,11.02
2022-12-22T21:44:02.205Z,9.80
2022-12-22T21:49:20.656Z,11.07
2022-12-22T21:54:31.644Z,10.45
2022-12-22T21:59:39.407Z,10.35
2022-12-22T22:04:53.977Z,12.00
2022-12-22T22:10:07.647Z,12.52
2022-12-22T22:15:16.045Z,12.18
2022-12-22T22:20:27.249Z,11.07
2022-12-22T22:25:40.245Z,10.88
2022-12-22T22:30:49.680Z,11.77
2022-12-22T22:36:02.214Z,12.00
2022-12-22T22:41:13.385Z,11.73
2022-12-22T22:46:20.133Z,12.45
2022-12-22T22:51:29.435Z,12.15
2022-12-22T22:56:39.137Z,11.02
2022-12-22T23:01:45.753Z,11.07
2022-12-22T23:06:54.199Z,10.80
2022-12-22T23:12:01.105Z,11.83
2022-12-22T23:17:08.562Z,11.80
2022-12-22T23:22:18.183Z,10.02
2022-12-22T23:27:25.935Z,9.80
2022-12-22T23:32:33.055Z,9.70
2022-12-22T23:37:41.628Z,9.30
2022-12-22T23:42:51.787Z,11.20
2022-12-22T23:48:03.134Z,10.40
2022-12-22T23:53:11.005Z,9.63
2022-12-22T23:58:19.603Z,9.75
